Terminal Aerodrome Forecast
Issued by NWS

Current Version | Previous Version | Graphics & Text | Print | Product List | Glossary On
Versions: 1 2 3 4 5 6 7 8 9 10 11 12 13 14 15 16 17 18 19 20 21 22 23 24
000
FTUS41 KRLX 240500
TAFCKB
TAF
KCKB 240536Z 2406/2506 VRB03KT P6SM BKN250
     FM240800 VRB03KT 6SM BR BKN250
      TEMPO 2409/2412 5SM BR
     FM241300 00000KT P6SM SCT250=

USA.gov is the U.S. government's official web portal to all federal, state and local government web resources and services.